Time;durP1;ratioP1;P1;durP2;ratioP2;P2;SDS_P1;SDS_P2;PMS_P1;PMS_P2;Temp;Humidity;BMP_temperature;BMP_pressure;BME280_temperature;BME280_humidity;BME280_pressure;Samples;Min_cycle;Max_cycle;Signal;HPM_P1;HPM_P2
2022/03/23 00:01:36;;;;;;;17.10;6.77;;;;;;;;;;10463940;28;20528;-74
2022/03/23 00:06:39;;;;;;;17.27;6.43;;;;;;;;;;10476845;28;20106;-73
2022/03/23 00:11:43;;;;;;;14.17;5.43;;;;;;;;;;10467118;28;20044;-74
2022/03/23 00:16:46;;;;;;;;;;;;;;;;;;10472270;28;20601;-75
2022/03/23 00:21:48;;;;;;;18.00;6.43;;;;;;;;;;10475618;28;19924;-74
2022/03/23 00:26:53;;;;;;;17.90;6.97;;;;;;;;;;10467471;28;20094;-74
2022/03/23 00:31:55;;;;;;;;;;;;;;;;;;10476764;28;20348;-76
2022/03/23 00:36:58;;;;;;;12.33;5.47;;;;;;;;;;10474201;28;20028;-74
2022/03/23 00:42:03;;;;;;;18.87;6.43;;;;;;;;;;10464933;28;20515;-74
2022/03/23 00:47:05;;;;;;;;;;;;;;;;;;10474860;28;20063;-74
2022/03/23 00:52:08;;;;;;;16.27;5.87;;;;;;;;;;10468366;28;19958;-75
2022/03/23 00:57:13;;;;;;;13.37;6.27;;;;;;;;;;10469989;28;20041;-76
2022/03/23 01:02:16;;;;;;;14.33;5.40;;;;;;;;;;10468166;28;20051;-77
2022/03/23 01:07:20;;;;;;;13.03;5.50;;;;;;;;;;10469445;28;20495;-75
2022/03/23 01:12:24;;;;;;;10.53;5.13;;;;;;;;;;10466824;28;20481;-74
2022/03/23 01:17:27;;;;;;;15.10;6.03;;;;;;;;;;10466647;28;20139;-74
2022/03/23 01:22:30;;;;;;;14.97;5.83;;;;;;;;;;10467459;28;20047;-73
2022/03/23 01:27:34;;;;;;;12.03;4.93;;;;;;;;;;10467145;28;20040;-73
2022/03/23 01:32:37;;;;;;;;;;;;;;;;;;10459879;28;20072;-74
2022/03/23 01:37:40;;;;;;;10.80;4.10;;;;;;;;;;10468781;28;19924;-75
2022/03/23 01:42:44;;;;;;;13.03;5.47;;;;;;;;;;10461626;28;20047;-73
2022/03/23 01:47:47;;;;;;;;;;;;;;;;;;10463599;28;20135;-75
2022/03/23 01:52:50;;;;;;;9.43;4.40;;;;;;;;;;10470725;28;19967;-74
2022/03/23 01:57:54;;;;;;;10.43;4.27;;;;;;;;;;10465584;28;20047;-75
2022/03/23 02:02:58;;;;;;;13.13;5.23;;;;;;;;;;10469641;28;20514;-73
2022/03/23 02:08:03;;;;;;;11.40;5.03;;;;;;;;;;10465668;28;20364;-74
2022/03/23 02:13:09;;;;;;;15.00;5.97;;;;;;;;;;10469693;28;20040;-74
2022/03/23 02:18:12;;;;;;;12.50;4.77;;;;;;;;;;10469275;28;20032;-74
2022/03/23 02:23:16;;;;;;;10.37;4.37;;;;;;;;;;10468236;28;20482;-76
2022/03/23 02:28:19;;;;;;;11.52;4.25;;;;;;;;;;10470087;28;20045;-75
2022/03/23 02:33:22;;;;;;;13.60;5.10;;;;;;;;;;10468253;28;20436;-76
2022/03/23 02:38:27;;;;;;;10.83;4.67;;;;;;;;;;10472359;28;20051;-74
2022/03/23 02:43:31;;;;;;;11.83;5.10;;;;;;;;;;10461988;28;20051;-74
2022/03/23 02:48:34;;;;;;;8.97;4.03;;;;;;;;;;10464802;28;20463;-75
2022/03/23 03:04:27;;;;;;;9.50;3.90;;;;;;;;;;10459231;28;20155;-74
2022/03/23 03:09:31;;;;;;;10.57;4.33;;;;;;;;;;10457770;28;20105;-73
2022/03/23 03:14:34;;;;;;;13.47;5.23;;;;;;;;;;10466691;28;20095;-75
2022/03/23 03:19:37;;;;;;;9.27;4.27;;;;;;;;;;10461053;28;20063;-74
2022/03/23 03:24:41;;;;;;;4.60;2.87;;;;;;;;;;10472112;28;20041;-76
2022/03/23 03:29:44;;;;;;;8.68;3.50;;;;;;;;;;10467264;28;20039;-75
2022/03/23 03:34:47;;;;;;;11.27;4.70;;;;;;;;;;10475396;28;20061;-75
2022/03/23 03:39:51;;;;;;;11.43;4.13;;;;;;;;;;10462774;28;20128;-75
2022/03/23 03:44:53;;;;;;;;;;;;;;;;;;10477052;28;20412;-76
2022/03/23 03:49:57;;;;;;;11.90;4.20;;;;;;;;;;10466536;28;20479;-75
2022/03/23 03:55:01;;;;;;;9.27;4.17;;;;;;;;;;10474850;28;20202;-76
2022/03/23 04:00:05;;;;;;;9.33;3.97;;;;;;;;;;10469405;28;20032;-75
2022/03/23 04:05:08;;;;;;;1.25;0.82;;;;;;;;;;10472933;28;20036;-75
2022/03/23 04:10:12;;;;;;;12.13;5.03;;;;;;;;;;10474226;28;20043;-74
2022/03/23 04:15:15;;;;;;;;;;;;;;;;;;10469751;28;20051;-74
2022/03/23 04:20:18;;;;;;;8.70;3.83;;;;;;;;;;10476053;28;19931;-75
2022/03/23 04:25:23;;;;;;;9.57;3.43;;;;;;;;;;10466960;28;20036;-75
2022/03/23 04:30:26;;;;;;;;;;;;;;;;;;10471490;28;20106;-75
2022/03/23 04:35:29;;;;;;;11.80;4.33;;;;;;;;;;10466922;28;20444;-74
2022/03/23 04:40:34;;;;;;;10.97;5.13;;;;;;;;;;10470548;28;20056;-74
2022/03/23 04:45:36;;;;;;;;;;;;;;;;;;10469368;28;20094;-74
2022/03/23 04:50:40;;;;;;;10.67;4.30;;;;;;;;;;10466991;28;19924;-75
2022/03/23 04:55:44;;;;;;;14.03;4.30;;;;;;;;;;10466501;28;20062;-75
2022/03/23 05:00:47;;;;;;;;;;;;;;;;;;10472605;28;20090;-75
2022/03/23 05:05:52;;;;;;;10.83;3.70;;;;;;;;;;10467564;28;19920;-74
2022/03/23 05:10:57;;;;;;;16.23;4.73;;;;;;;;;;10469044;28;20072;-75
2022/03/23 05:16:00;;;;;;;12.47;4.63;;;;;;;;;;10462568;28;20075;-74
2022/03/23 05:21:04;;;;;;;12.60;4.80;;;;;;;;;;10463293;28;20231;-74
2022/03/23 05:26:07;;;;;;;;;;;;;;;;;;10472081;28;20520;-74
2022/03/23 05:31:13;;;;;;;10.20;3.92;;;;;;;;;;10474560;28;19920;-74
2022/03/23 05:36:16;;;;;;;11.32;3.88;;;;;;;;;;10460470;28;20048;-73
2022/03/23 05:41:19;;;;;;;11.23;3.80;;;;;;;;;;10454345;28;20040;-74
2022/03/23 05:46:25;;;;;;;3.30;1.52;;;;;;;;;;10459034;28;20032;-74
2022/03/23 05:51:28;;;;;;;12.43;5.00;;;;;;;;;;10461441;28;20124;-73
2022/03/23 05:56:31;;;;;;;18.23;4.60;;;;;;;;;;10459561;28;20090;-75
2022/03/23 06:01:36;;;;;;;11.53;3.83;;;;;;;;;;10459173;28;20037;-75
2022/03/23 06:06:39;;;;;;;10.23;4.33;;;;;;;;;;10451939;28;20071;-76
2022/03/23 06:11:43;;;;;;;14.73;5.03;;;;;;;;;;10467246;28;20047;-76
2022/03/23 06:16:47;;;;;;;13.00;5.00;;;;;;;;;;10464287;28;20121;-76
2022/03/23 06:21:51;;;;;;;12.73;5.00;;;;;;;;;;10468200;28;20131;-76
2022/03/23 06:26:54;;;;;;;11.13;4.67;;;;;;;;;;10462496;28;20040;-75
2022/03/23 06:31:59;;;;;;;12.03;4.63;;;;;;;;;;10463398;28;20044;-74
2022/03/23 06:37:02;;;;;;;13.27;5.20;;;;;;;;;;10464489;28;20049;-74
2022/03/23 06:42:05;;;;;;;14.17;5.57;;;;;;;;;;10473316;28;20035;-74
2022/03/23 06:47:09;;;;;;;14.17;4.37;;;;;;;;;;10465061;28;20439;-74
2022/03/23 06:52:12;;;;;;;9.65;4.60;;;;;;;;;;10487032;28;20105;-75
2022/03/23 06:57:15;;;;;;;17.93;6.93;;;;;;;;;;10489183;28;20044;-74
2022/03/23 07:02:20;;;;;;;14.93;6.95;;;;;;;;;;10481711;28;20036;-76
2022/03/23 07:07:24;;;;;;;17.77;6.93;;;;;;;;;;10463538;28;20114;-76
2022/03/23 07:12:27;;;;;;;15.23;6.50;;;;;;;;;;10476020;28;20078;-76
2022/03/23 07:17:33;;;;;;;16.13;7.15;;;;;;;;;;10463000;28;20150;-76
2022/03/23 07:22:36;;;;;;;16.38;7.65;;;;;;;;;;10476403;28;20412;-77
2022/03/23 07:27:39;;;;;;;;;;;;;;;;;;10464443;28;20036;-76
2022/03/23 07:32:43;;;;;;;14.30;7.37;;;;;;;;;;10467426;28;19921;-76
2022/03/23 07:37:46;;;;;;;15.15;7.80;;;;;;;;;;10476416;28;20083;-75
2022/03/23 07:42:49;;;;;;;15.52;8.70;;;;;;;;;;10469910;28;20514;-78
2022/03/23 07:47:53;;;;;;;13.88;8.68;;;;;;;;;;10466120;28;20094;-73
2022/03/23 07:52:56;;;;;;;17.40;9.75;;;;;;;;;;10466849;28;20603;-74
2022/03/23 07:57:59;;;;;;;15.27;9.10;;;;;;;;;;10471687;28;20037;-74
2022/03/23 08:03:03;;;;;;;15.88;10.40;;;;;;;;;;10472197;28;20044;-72
2022/03/23 08:08:09;;;;;;;15.52;9.80;;;;;;;;;;10469887;28;20047;-73
2022/03/23 08:13:12;;;;;;;15.35;9.35;;;;;;;;;;10462446;28;20087;-72
2022/03/23 08:18:21;;;;;;;19.25;9.80;;;;;;;;;;10469215;28;20139;-73
2022/03/23 08:23:25;;;;;;;17.85;9.82;;;;;;;;;;10474293;28;20535;-76
2022/03/23 08:28:28;;;;;;;22.20;10.80;;;;;;;;;;10480373;28;20071;-76
2022/03/23 08:33:34;;;;;;;26.55;11.85;;;;;;;;;;10472892;28;20029;-78
2022/03/23 08:38:38;;;;;;;33.83;12.27;;;;;;;;;;10471721;28;20094;-77
2022/03/23 08:43:41;;;;;;;18.73;11.15;;;;;;;;;;10469391;28;20032;-77
2022/03/23 08:48:45;;;;;;;16.50;10.75;;;;;;;;;;10471388;28;20471;-76
2022/03/23 08:53:48;;;;;;;16.17;10.07;;;;;;;;;;10471430;28;20640;-76
2022/03/23 08:58:52;;;;;;;24.40;12.00;;;;;;;;;;10471252;28;20385;-76
2022/03/23 09:04:00;;;;;;;25.92;17.77;;;;;;;;;;10461588;28;20081;-77
2022/03/23 09:09:04;;;;;;;21.55;12.05;;;;;;;;;;10467922;28;20037;-77
2022/03/23 09:14:07;;;;;;;17.45;11.52;;;;;;;;;;10482421;28;20040;-77
2022/03/23 09:19:14;;;;;;;18.27;12.48;;;;;;;;;;10461701;28;20064;-78
2022/03/23 09:24:19;;;;;;;18.30;12.23;;;;;;;;;;10464426;28;20043;-78
2022/03/23 09:29:22;;;;;;;16.17;12.10;;;;;;;;;;10467470;28;20040;-76
2022/03/23 09:34:27;;;;;;;17.45;11.63;;;;;;;;;;10471716;28;20037;-77
2022/03/23 09:39:30;;;;;;;18.42;12.40;;;;;;;;;;10460733;28;20085;-78
2022/03/23 09:44:34;;;;;;;14.63;12.07;;;;;;;;;;10467771;28;20033;-76
2022/03/23 09:49:39;;;;;;;19.00;12.82;;;;;;;;;;10461899;28;20064;-76
2022/03/23 09:54:42;;;;;;;23.67;13.23;;;;;;;;;;10469368;28;20033;-76
2022/03/23 09:59:45;;;;;;;16.70;12.02;;;;;;;;;;10472616;28;20102;-77
2022/03/23 10:05:15;;;;;;;17.85;11.88;;;;;;;;;;10465507;28;20059;-79
2022/03/23 10:10:55;;;;;;;17.15;13.48;;;;;;;;;;10458856;28;20077;-77
2022/03/23 10:16:28;;;;;;;23.48;18.45;;;;;;;;;;10463139;28;20039;-78
2022/03/23 10:21:33;;;;;;;17.38;13.60;;;;;;;;;;10469853;28;20045;-78
2022/03/23 10:26:37;;;;;;;18.30;15.05;;;;;;;;;;10470788;28;20626;-78
2022/03/23 10:31:43;;;;;;;18.92;13.23;;;;;;;;;;10462951;28;20394;-78
2022/03/23 10:36:51;;;;;;;23.45;15.88;;;;;;;;;;10464346;28;20043;-77
2022/03/23 10:41:59;;;;;;;17.08;13.20;;;;;;;;;;10468580;28;20071;-78
2022/03/23 10:47:02;;;;;;;17.30;13.02;;;;;;;;;;10462586;28;20649;-79
2022/03/23 10:52:11;;;;;;;16.88;12.75;;;;;;;;;;10466713;28;20056;-79
2022/03/23 10:57:16;;;;;;;16.07;12.47;;;;;;;;;;10462511;28;20037;-78
2022/03/23 11:02:19;;;;;;;14.48;11.45;;;;;;;;;;10468756;28;20469;-78
2022/03/23 11:07:24;;;;;;;13.93;11.27;;;;;;;;;;10470437;28;20047;-77
2022/03/23 11:17:48;;;;;;;14.73;12.30;;;;;;;;;;10493074;28;20032;-78
2022/03/23 11:22:51;;;;;;;20.27;14.95;;;;;;;;;;10525207;28;20068;-77
2022/03/23 11:27:56;;;;;;;20.30;16.92;;;;;;;;;;10480783;28;20063;-77
2022/03/23 11:33:00;;;;;;;17.67;12.25;;;;;;;;;;10471399;28;20036;-78
2022/03/23 11:38:05;;;;;;;15.43;12.25;;;;;;;;;;10464014;28;20086;-77
2022/03/23 11:43:11;;;;;;;17.27;12.90;;;;;;;;;;10466214;28;20044;-77
2022/03/23 11:48:55;;;;;;;19.20;13.43;;;;;;;;;;10468611;28;20040;-76
2022/03/23 11:54:02;;;;;;;13.25;11.70;;;;;;;;;;10471366;28;20062;-77
2022/03/23 11:59:20;;;;;;;17.60;14.15;;;;;;;;;;10482321;28;20542;-78
2022/03/23 12:04:23;;;;;;;19.65;14.13;;;;;;;;;;10488153;28;20050;-79
2022/03/23 12:09:34;;;;;;;16.10;12.60;;;;;;;;;;10486009;28;20090;-77
2022/03/23 12:14:39;;;;;;;14.23;12.18;;;;;;;;;;10473233;28;20632;-78
2022/03/23 12:20:06;;;;;;;18.30;13.10;;;;;;;;;;10469764;28;20524;-78
2022/03/23 12:25:12;;;;;;;20.73;13.95;;;;;;;;;;10468874;28;20028;-77
2022/03/23 12:30:21;;;;;;;18.25;12.93;;;;;;;;;;10469157;28;20040;-77
2022/03/23 12:35:29;;;;;;;19.42;12.85;;;;;;;;;;10461200;28;20123;-77
2022/03/23 12:40:37;;;;;;;17.88;12.52;;;;;;;;;;10474923;28;20040;-77
2022/03/23 12:45:43;;;;;;;18.25;13.05;;;;;;;;;;10469068;28;20562;-77
2022/03/23 13:01:39;;;;;;;18.40;13.10;;;;;;;;;;10470481;22;20132;-70
2022/03/23 13:06:43;;;;;;;15.65;11.23;;;;;;;;;;10461905;28;20024;-70
2022/03/23 13:11:56;;;;;;;22.55;13.68;;;;;;;;;;10457597;28;20045;-71
2022/03/23 13:17:02;;;;;;;16.73;11.85;;;;;;;;;;10472948;22;20041;-74
2022/03/23 13:22:05;;;;;;;20.30;13.13;;;;;;;;;;10481457;28;20483;-75
2022/03/23 13:27:11;;;;;;;15.68;11.02;;;;;;;;;;10464518;28;20033;-74
2022/03/23 13:32:18;;;;;;;16.27;10.75;;;;;;;;;;10481511;28;20049;-75
2022/03/23 13:37:21;;;;;;;15.23;10.38;;;;;;;;;;10478096;28;20032;-74
2022/03/23 13:47:46;;;;;;;15.32;11.05;;;;;;;;;;10481557;28;20403;-75
2022/03/23 13:52:49;;;;;;;21.88;14.25;;;;;;;;;;10459462;28;20045;-73
2022/03/23 13:57:53;;;;;;;20.33;12.18;;;;;;;;;;10474824;28;20407;-73
2022/03/23 14:02:57;;;;;;;15.85;9.73;;;;;;;;;;10476033;28;20043;-73
2022/03/23 14:08:01;;;;;;;17.02;10.80;;;;;;;;;;10480549;28;20534;-72
2022/03/23 14:13:08;;;;;;;15.23;9.68;;;;;;;;;;10490959;28;20033;-72
2022/03/23 14:18:13;;;;;;;16.20;8.80;;;;;;;;;;10477960;28;20496;-73
2022/03/23 14:23:17;;;;;;;17.20;9.65;;;;;;;;;;10460393;28;20033;-73
2022/03/23 14:28:22;;;;;;;15.48;9.30;;;;;;;;;;10482230;28;20639;-73
2022/03/23 14:33:27;;;;;;;18.77;9.27;;;;;;;;;;10477423;28;20101;-73
2022/03/23 14:38:31;;;;;;;19.63;11.02;;;;;;;;;;10474937;28;20041;-73
2022/03/23 14:43:36;;;;;;;16.77;10.02;;;;;;;;;;10480112;28;20131;-72
2022/03/23 14:48:41;;;;;;;15.73;9.98;;;;;;;;;;10459377;28;20037;-72
2022/03/23 14:53:47;;;;;;;15.10;9.68;;;;;;;;;;10480130;28;20439;-72
2022/03/23 14:58:49;;;;;;;18.27;9.88;;;;;;;;;;10458856;28;20041;-72
2022/03/23 15:03:54;;;;;;;24.65;13.85;;;;;;;;;;10480527;28;20029;-71
2022/03/23 15:14:18;;;;;;;24.08;12.65;;;;;;;;;;10461153;28;20041;-72
2022/03/23 15:19:22;;;;;;;17.73;9.90;;;;;;;;;;10460560;28;20093;-73
2022/03/23 15:24:25;;;;;;;16.75;9.23;;;;;;;;;;10486842;28;20447;-75
2022/03/23 15:29:27;;;;;;;;;;;;;;;;;;10470244;28;20045;-73
2022/03/23 15:34:32;;;;;;;16.67;9.63;;;;;;;;;;10491189;28;20312;-73
2022/03/23 15:39:34;;;;;;;19.55;10.63;;;;;;;;;;10470665;28;20041;-73
2022/03/23 15:44:38;;;;;;;;;;;;;;;;;;10490163;28;20040;-72
2022/03/23 15:49:44;;;;;;;13.45;7.47;;;;;;;;;;10475362;28;19931;-73
2022/03/23 15:54:47;;;;;;;15.10;8.23;;;;;;;;;;10499318;28;20306;-74
2022/03/23 15:59:50;;;;;;;14.70;8.70;;;;;;;;;;10481728;28;20094;-73
2022/03/23 16:04:52;;;;;;;;;;;;;;;;;;10496832;28;20052;-74
2022/03/23 16:09:58;;;;;;;16.40;8.15;;;;;;;;;;10473851;28;19931;-73
2022/03/23 16:15:01;;;;;;;14.05;6.65;;;;;;;;;;10493150;28;20033;-73
2022/03/23 16:20:05;;;;;;;13.93;8.02;;;;;;;;;;10480963;28;20119;-74
2022/03/23 16:25:10;;;;;;;20.13;9.15;;;;;;;;;;10462537;28;20086;-73
2022/03/23 16:30:15;;;;;;;18.63;8.40;;;;;;;;;;10478229;28;20060;-72
2022/03/23 16:35:17;;;;;;;19.77;8.32;;;;;;;;;;10486957;28;20044;-73
2022/03/23 16:40:23;;;;;;;28.08;10.20;;;;;;;;;;10466850;28;20094;-74
2022/03/23 16:45:27;;;;;;;19.73;7.95;;;;;;;;;;10477656;28;20564;-74
2022/03/23 16:50:29;;;;;;;;;;;;;;;;;;10514594;28;20455;-74
2022/03/23 16:55:34;;;;;;;21.55;8.27;;;;;;;;;;10472379;28;19924;-74
2022/03/23 17:00:37;;;;;;;20.80;10.10;;;;;;;;;;10480552;28;20451;-74
2022/03/23 17:16:24;;;;;;;16.45;7.03;;;;;;;;;;10483836;28;20373;-73
2022/03/23 17:21:27;;;;;;;12.18;6.18;;;;;;;;;;10460119;28;20071;-74
2022/03/23 17:26:31;;;;;;;15.55;6.90;;;;;;;;;;10462738;28;20033;-73
2022/03/23 17:31:35;;;;;;;11.60;5.68;;;;;;;;;;10482611;28;20041;-73
2022/03/23 17:36:38;;;;;;;11.20;6.18;;;;;;;;;;10462192;28;20376;-73
2022/03/23 17:41:42;;;;;;;17.67;6.33;;;;;;;;;;10476002;28;20079;-73
2022/03/23 17:46:45;;;;;;;11.18;5.38;;;;;;;;;;10451445;28;20037;-73
2022/03/23 17:51:48;;;;;;;15.33;6.70;;;;;;;;;;10491478;28;20090;-73
2022/03/23 17:56:53;;;;;;;15.45;5.80;;;;;;;;;;10485930;28;20043;-73
2022/03/23 18:01:56;;;;;;;17.73;6.85;;;;;;;;;;10493857;28;20041;-72
2022/03/23 18:06:59;;;;;;;18.20;6.50;;;;;;;;;;10482902;28;20434;-72
2022/03/23 18:12:04;;;;;;;14.85;6.78;;;;;;;;;;10483547;28;20044;-72
2022/03/23 18:17:07;;;;;;;14.48;6.50;;;;;;;;;;10459595;28;20043;-72
2022/03/23 18:22:12;;;;;;;12.77;5.80;;;;;;;;;;10487076;28;20040;-73
2022/03/23 18:27:16;;;;;;;13.85;5.35;;;;;;;;;;10455873;28;20120;-72
2022/03/23 18:32:19;;;;;;;15.10;6.32;;;;;;;;;;10475414;28;20038;-73
2022/03/23 18:37:22;;;;;;;11.77;5.40;;;;;;;;;;10481371;28;20123;-71
2022/03/23 18:42:27;;;;;;;17.38;6.13;;;;;;;;;;10469513;28;20052;-73
2022/03/23 18:47:30;;;;;;;10.25;4.45;;;;;;;;;;10479670;28;20330;-73
2022/03/23 18:52:34;;;;;;;15.38;5.22;;;;;;;;;;10481964;28;20454;-72
2022/03/23 18:57:39;;;;;;;13.45;7.00;;;;;;;;;;10469699;28;20507;-72
2022/03/23 19:02:42;;;;;;;16.65;5.43;;;;;;;;;;10487831;28;20446;-72
2022/03/23 19:07:45;;;;;;;16.50;5.83;;;;;;;;;;10478213;28;20051;-71
2022/03/23 19:12:52;;;;;;;16.90;6.33;;;;;;;;;;10470264;28;20387;-72
2022/03/23 19:17:55;;;;;;;20.98;6.93;;;;;;;;;;10475534;22;20447;-74
2022/03/23 19:22:58;;;;;;;17.10;7.13;;;;;;;;;;10466977;28;20033;-73
2022/03/23 19:28:02;;;;;;;17.80;6.65;;;;;;;;;;10466247;28;20561;-74
2022/03/23 19:33:07;;;;;;;28.38;11.40;;;;;;;;;;10466852;28;20198;-75
2022/03/23 19:38:10;;;;;;;20.73;7.73;;;;;;;;;;10465252;28;20181;-73
2022/03/23 19:43:14;;;;;;;21.30;8.07;;;;;;;;;;10472713;28;20060;-76
2022/03/23 19:48:17;;;;;;;15.02;6.75;;;;;;;;;;10470717;28;20045;-75
2022/03/23 19:53:20;;;;;;;19.77;6.83;;;;;;;;;;10470744;28;20044;-72
2022/03/23 19:58:25;;;;;;;17.70;7.10;;;;;;;;;;10462252;28;20041;-73
2022/03/23 20:03:29;;;;;;;21.00;7.28;;;;;;;;;;10457383;28;20068;-73
2022/03/23 20:08:33;;;;;;;16.52;6.57;;;;;;;;;;10458899;28;20032;-73
2022/03/23 20:13:37;;;;;;;23.53;7.77;;;;;;;;;;10466821;28;20262;-74
2022/03/23 20:18:41;;;;;;;21.33;7.72;;;;;;;;;;10463522;28;20052;-75
2022/03/23 20:23:44;;;;;;;20.63;8.02;;;;;;;;;;10459241;28;20041;-74
2022/03/23 20:28:50;;;;;;;18.25;6.78;;;;;;;;;;10467020;28;20107;-73
2022/03/23 20:33:54;;;;;;;20.35;7.43;;;;;;;;;;10465445;28;20123;-73
2022/03/23 20:38:57;;;;;;;23.23;7.30;;;;;;;;;;10458078;28;20029;-73
2022/03/23 20:44:03;;;;;;;17.90;6.95;;;;;;;;;;10475127;28;20227;-73
2022/03/23 20:49:08;;;;;;;20.70;7.30;;;;;;;;;;10459053;28;20591;-73
2022/03/23 20:54:12;;;;;;;17.92;7.20;;;;;;;;;;10467703;28;20063;-71
2022/03/23 20:59:16;;;;;;;24.35;8.07;;;;;;;;;;10463038;28;20069;-73
2022/03/23 21:04:18;;;;;;;;;;;;;;;;;;10458620;28;20102;-72
2022/03/23 21:09:21;;;;;;;23.52;10.32;;;;;;;;;;10459688;28;20322;-73
2022/03/23 21:14:25;;;;;;;23.63;7.25;;;;;;;;;;10461752;28;20069;-74
2022/03/23 21:19:28;;;;;;;;;;;;;;;;;;10458411;28;20072;-71
2022/03/23 21:24:31;;;;;;;17.98;7.50;;;;;;;;;;10460201;28;19928;-73
2022/03/23 21:29:35;;;;;;;22.10;8.57;;;;;;;;;;10462670;28;20052;-73
2022/03/23 21:34:39;;;;;;;28.02;8.57;;;;;;;;;;10455699;28;20036;-74
2022/03/23 21:39:41;;;;;;;31.55;9.10;;;;;;;;;;10463045;28;20116;-75
2022/03/23 21:44:46;;;;;;;24.70;8.52;;;;;;;;;;10463335;28;20049;-73
2022/03/23 21:49:48;;;;;;;;;;;;;;;;;;10467436;28;20106;-74
2022/03/23 21:54:51;;;;;;;25.23;8.88;;;;;;;;;;10472215;28;19974;-74
2022/03/23 21:59:55;;;;;;;24.95;8.75;;;;;;;;;;10458588;28;20454;-75
2022/03/23 22:04:58;;;;;;;;;;;;;;;;;;10458546;28;20049;-74
2022/03/23 22:10:02;;;;;;;21.83;8.40;;;;;;;;;;10460027;28;20380;-76
2022/03/23 22:15:07;;;;;;;21.60;8.35;;;;;;;;;;10456937;28;20041;-74
2022/03/23 22:20:11;;;;;;;27.50;8.65;;;;;;;;;;10459442;28;20063;-74
2022/03/23 22:25:14;;;;;;;24.67;8.60;;;;;;;;;;10456833;28;20044;-73
2022/03/23 22:30:19;;;;;;;20.38;8.30;;;;;;;;;;10455808;28;20049;-74
2022/03/23 22:35:22;;;;;;;;;;;;;;;;;;10458245;28;20560;-72
2022/03/23 22:40:25;;;;;;;26.63;9.30;;;;;;;;;;10459613;28;19924;-71
2022/03/23 22:45:29;;;;;;;24.95;10.52;;;;;;;;;;10464245;28;20079;-73
2022/03/23 22:50:31;;;;;;;;;;;;;;;;;;10460988;28;20412;-73
2022/03/23 22:55:35;;;;;;;31.83;11.32;;;;;;;;;;10457624;28;20022;-72
2022/03/23 23:00:57;;;;;;;25.90;8.20;;;;;;;;;;10455248;28;20040;-72
2022/03/23 23:06:02;;;;;;;23.58;8.52;;;;;;;;;;10455325;28;20044;-73
2022/03/23 23:11:05;;;;;;;;;;;;;;;;;;10461832;28;20083;-74
2022/03/23 23:16:09;;;;;;;21.55;8.68;;;;;;;;;;10451394;28;19928;-74
2022/03/23 23:21:13;;;;;;;23.27;8.18;;;;;;;;;;10458402;28;20790;-74
2022/03/23 23:26:16;;;;;;;20.35;8.95;;;;;;;;;;10464878;28;20052;-74
2022/03/23 23:31:20;;;;;;;29.73;8.57;;;;;;;;;;10455409;28;20120;-74
2022/03/23 23:36:24;;;;;;;19.40;7.78;;;;;;;;;;10451639;28;20037;-74
2022/03/23 23:41:27;;;;;;;24.05;9.18;;;;;;;;;;10470897;28;20064;-73
2022/03/23 23:46:30;;;;;;;20.55;8.40;;;;;;;;;;10463390;28;20045;-75
2022/03/23 23:51:34;;;;;;;21.40;7.97;;;;;;;;;;10483167;28;20029;-72
2022/03/23 23:56:36;;;;;;;;;;;;;;;;;;10462282;28;20052;-74
